sensor_id;sensor_type;location;lat;lon;timestamp;pressure;altitude;pressure_sealevel;temperature;humidity
36234;BME280;43467;50.890;5.982;2022-08-19T00:00:19;100044.41;;;22.05;65.10
36234;BME280;43467;50.890;5.982;2022-08-19T00:02:45;100054.22;;;22.06;64.97
36234;BME280;43467;50.890;5.982;2022-08-19T00:05:13;100053.34;;;22.06;64.93
36234;BME280;43467;50.890;5.982;2022-08-19T00:07:38;100056.34;;;22.03;64.73
36234;BME280;43467;50.890;5.982;2022-08-19T00:12:31;100049.22;;;22.11;64.86
36234;BME280;43467;50.890;5.982;2022-08-19T00:14:56;100051.50;;;22.16;64.26
36234;BME280;43467;50.890;5.982;2022-08-19T00:17:21;100049.09;;;22.13;64.68
36234;BME280;43467;50.890;5.982;2022-08-19T00:19:47;100053.91;;;22.09;64.38
36234;BME280;43467;50.890;5.982;2022-08-19T00:22:12;100042.97;;;22.11;63.77
36234;BME280;43467;50.890;5.982;2022-08-19T00:27:04;100046.00;;;22.08;64.64
36234;BME280;43467;50.890;5.982;2022-08-19T00:29:30;100046.13;;;22.06;64.31
36234;BME280;43467;50.890;5.982;2022-08-19T00:31:57;100046.56;;;22.02;64.81
36234;BME280;43467;50.890;5.982;2022-08-19T00:34:24;100051.25;;;22.00;64.84
36234;BME280;43467;50.890;5.982;2022-08-19T00:36:54;100055.66;;;22.01;64.45
36234;BME280;43467;50.890;5.982;2022-08-19T00:39:20;100043.19;;;22.00;64.44
36234;BME280;43467;50.890;5.982;2022-08-19T00:41:47;100038.34;;;22.03;64.74
36234;BME280;43467;50.890;5.982;2022-08-19T00:44:22;100039.50;;;22.01;64.94
36234;BME280;43467;50.890;5.982;2022-08-19T00:46:50;100037.63;;;22.01;64.64
36234;BME280;43467;50.890;5.982;2022-08-19T00:49:21;100036.22;;;21.97;65.33
36234;BME280;43467;50.890;5.982;2022-08-19T00:51:51;100034.81;;;21.93;65.70
36234;BME280;43467;50.890;5.982;2022-08-19T00:54:18;100038.75;;;21.89;65.46
36234;BME280;43467;50.890;5.982;2022-08-19T00:56:45;100034.53;;;21.87;65.23
36234;BME280;43467;50.890;5.982;2022-08-19T00:59:11;100030.00;;;21.87;65.43
36234;BME280;43467;50.890;5.982;2022-08-19T01:01:40;100028.41;;;21.85;65.81
36234;BME280;43467;50.890;5.982;2022-08-19T01:04:06;100036.38;;;21.86;65.61
36234;BME280;43467;50.890;5.982;2022-08-19T01:06:32;100047.03;;;21.68;66.58
36234;BME280;43467;50.890;5.982;2022-08-19T01:08:59;100042.25;;;21.62;66.70
36234;BME280;43467;50.890;5.982;2022-08-19T01:11:26;100044.53;;;21.57;66.76
36234;BME280;43467;50.890;5.982;2022-08-19T01:13:52;100046.22;;;21.58;66.56
36234;BME280;43467;50.890;5.982;2022-08-19T01:16:19;100044.94;;;21.62;66.25
36234;BME280;43467;50.890;5.982;2022-08-19T01:18:46;100047.94;;;21.59;66.57
36234;BME280;43467;50.890;5.982;2022-08-19T01:23:49;100059.56;;;21.50;67.12
36234;BME280;43467;50.890;5.982;2022-08-19T01:26:18;100054.06;;;21.42;67.39
36234;BME280;43467;50.890;5.982;2022-08-19T01:28:47;100051.50;;;21.41;67.22
36234;BME280;43467;50.890;5.982;2022-08-19T01:31:15;100057.59;;;21.33;67.86
36234;BME280;43467;50.890;5.982;2022-08-19T01:33:42;100061.00;;;21.35;67.13
36234;BME280;43467;50.890;5.982;2022-08-19T01:36:14;100063.41;;;21.28;67.95
36234;BME280;43467;50.890;5.982;2022-08-19T01:38:42;100059.69;;;21.10;68.82
36234;BME280;43467;50.890;5.982;2022-08-19T01:41:09;100042.38;;;21.03;68.47
36234;BME280;43467;50.890;5.982;2022-08-19T01:43:34;100050.59;;;20.92;69.51
36234;BME280;43467;50.890;5.982;2022-08-19T01:46:00;100053.56;;;20.79;69.59
36234;BME280;43467;50.890;5.982;2022-08-19T01:48:33;100056.53;;;20.76;69.74
36234;BME280;43467;50.890;5.982;2022-08-19T01:50:58;100063.50;;;20.88;68.88
36234;BME280;43467;50.890;5.982;2022-08-19T01:53:24;100071.16;;;20.93;68.96
36234;BME280;43467;50.890;5.982;2022-08-19T01:55:49;100063.66;;;20.97;69.11
36234;BME280;43467;50.890;5.982;2022-08-19T01:58:19;100067.16;;;20.87;69.54
36234;BME280;43467;50.890;5.982;2022-08-19T02:00:46;100061.91;;;20.76;69.56
36234;BME280;43467;50.890;5.982;2022-08-19T02:03:12;100068.28;;;20.66;69.35
36234;BME280;43467;50.890;5.982;2022-08-19T02:05:39;100063.47;;;20.79;69.28
36234;BME280;43467;50.890;5.982;2022-08-19T02:08:05;100059.34;;;20.75;69.33
36234;BME280;43467;50.890;5.982;2022-08-19T02:10:31;100062.63;;;20.69;70.05
36234;BME280;43467;50.890;5.982;2022-08-19T02:12:57;100069.97;;;20.67;69.94
36234;BME280;43467;50.890;5.982;2022-08-19T02:15:22;100064.59;;;20.67;69.79
36234;BME280;43467;50.890;5.982;2022-08-19T02:17:49;100073.78;;;20.64;70.09
36234;BME280;43467;50.890;5.982;2022-08-19T02:20:15;100073.06;;;20.62;70.27
36234;BME280;43467;50.890;5.982;2022-08-19T02:22:41;100068.41;;;20.64;70.24
36234;BME280;43467;50.890;5.982;2022-08-19T02:25:12;100063.16;;;20.53;70.39
36234;BME280;43467;50.890;5.982;2022-08-19T02:27:38;100063.56;;;20.58;70.39
36234;BME280;43467;50.890;5.982;2022-08-19T02:30:06;100056.34;;;20.59;69.92
36234;BME280;43467;50.890;5.982;2022-08-19T02:32:32;100062.88;;;20.56;70.21
36234;BME280;43467;50.890;5.982;2022-08-19T02:34:58;100057.03;;;20.51;70.74
36234;BME280;43467;50.890;5.982;2022-08-19T02:37:24;100057.44;;;20.47;70.60
36234;BME280;43467;50.890;5.982;2022-08-19T02:40:08;100063.84;;;20.46;70.38
36234;BME280;43467;50.890;5.982;2022-08-19T02:42:33;100066.53;;;20.46;70.73
36234;BME280;43467;50.890;5.982;2022-08-19T02:44:59;100062.66;;;20.38;70.55
36234;BME280;43467;50.890;5.982;2022-08-19T02:47:25;100068.50;;;20.44;71.02
36234;BME280;43467;50.890;5.982;2022-08-19T02:49:50;100074.16;;;20.40;70.97
36234;BME280;43467;50.890;5.982;2022-08-19T02:52:16;100087.16;;;20.35;71.22
36234;BME280;43467;50.890;5.982;2022-08-19T02:54:42;100089.63;;;20.27;71.45
36234;BME280;43467;50.890;5.982;2022-08-19T02:57:07;100088.13;;;20.14;71.97
36234;BME280;43467;50.890;5.982;2022-08-19T02:59:33;100085.72;;;20.11;71.77
36234;BME280;43467;50.890;5.982;2022-08-19T03:01:58;100088.22;;;20.03;72.44
36234;BME280;43467;50.890;5.982;2022-08-19T03:04:24;100090.63;;;19.96;72.84
36234;BME280;43467;50.890;5.982;2022-08-19T03:06:50;100092.44;;;19.95;72.94
36234;BME280;43467;50.890;5.982;2022-08-19T03:09:17;100102.16;;;19.87;73.60
36234;BME280;43467;50.890;5.982;2022-08-19T03:11:43;100096.19;;;19.83;73.58
36234;BME280;43467;50.890;5.982;2022-08-19T03:14:09;100088.25;;;19.82;74.03
36234;BME280;43467;50.890;5.982;2022-08-19T03:16:58;100090.66;;;19.85;74.35
36234;BME280;43467;50.890;5.982;2022-08-19T03:19:23;100089.09;;;19.82;74.24
36234;BME280;43467;50.890;5.982;2022-08-19T03:21:50;100089.22;;;19.81;74.86
36234;BME280;43467;50.890;5.982;2022-08-19T03:24:16;100080.34;;;19.80;74.50
36234;BME280;43467;50.890;5.982;2022-08-19T03:26:46;100087.34;;;19.72;75.36
36234;BME280;43467;50.890;5.982;2022-08-19T03:29:12;100077.97;;;19.66;75.98
36234;BME280;43467;50.890;5.982;2022-08-19T03:31:39;100088.72;;;19.66;76.36
36234;BME280;43467;50.890;5.982;2022-08-19T03:34:06;100089.75;;;19.54;76.64
36234;BME280;43467;50.890;5.982;2022-08-19T03:36:32;100092.66;;;19.62;75.65
36234;BME280;43467;50.890;5.982;2022-08-19T03:38:59;100088.41;;;19.60;76.16
36234;BME280;43467;50.890;5.982;2022-08-19T03:41:27;100087.88;;;19.66;76.55
36234;BME280;43467;50.890;5.982;2022-08-19T03:43:54;100088.00;;;19.64;76.94
36234;BME280;43467;50.890;5.982;2022-08-19T03:46:25;100096.13;;;19.53;77.06
36234;BME280;43467;50.890;5.982;2022-08-19T03:48:52;100091.59;;;19.54;77.19
36234;BME280;43467;50.890;5.982;2022-08-19T03:51:23;100094.44;;;19.52;76.85
36234;BME280;43467;50.890;5.982;2022-08-19T03:53:51;100095.53;;;19.49;77.27
36234;BME280;43467;50.890;5.982;2022-08-19T03:56:17;100094.44;;;19.52;76.66
36234;BME280;43467;50.890;5.982;2022-08-19T03:58:42;100103.19;;;19.54;76.41
36234;BME280;43467;50.890;5.982;2022-08-19T04:01:10;100098.56;;;19.56;76.46
36234;BME280;43467;50.890;5.982;2022-08-19T04:03:37;100100.31;;;19.46;77.08
36234;BME280;43467;50.890;5.982;2022-08-19T04:06:15;100111.91;;;19.46;76.98
36234;BME280;43467;50.890;5.982;2022-08-19T04:08:42;100107.25;;;19.37;76.87
36234;BME280;43467;50.890;5.982;2022-08-19T04:11:14;100109.38;;;19.34;77.19
36234;BME280;43467;50.890;5.982;2022-08-19T04:13:40;100108.38;;;19.35;77.00
36234;BME280;43467;50.890;5.982;2022-08-19T04:16:06;100104.38;;;19.29;77.45
36234;BME280;43467;50.890;5.982;2022-08-19T04:18:33;100109.25;;;19.35;77.14
36234;BME280;43467;50.890;5.982;2022-08-19T04:20:59;100104.97;;;19.33;77.34
36234;BME280;43467;50.890;5.982;2022-08-19T04:23:25;100099.59;;;19.33;77.33
36234;BME280;43467;50.890;5.982;2022-08-19T04:25:50;100103.66;;;19.27;77.42
36234;BME280;43467;50.890;5.982;2022-08-19T04:28:16;100091.72;;;19.20;77.85
36234;BME280;43467;50.890;5.982;2022-08-19T04:30:47;100100.34;;;19.24;77.91
36234;BME280;43467;50.890;5.982;2022-08-19T04:33:15;100102.97;;;19.14;78.49
36234;BME280;43467;50.890;5.982;2022-08-19T04:35:43;100106.97;;;19.20;78.19
36234;BME280;43467;50.890;5.982;2022-08-19T04:38:11;100104.53;;;19.17;78.24
36234;BME280;43467;50.890;5.982;2022-08-19T04:40:41;100097.03;;;18.99;78.85
36234;BME280;43467;50.890;5.982;2022-08-19T04:43:26;100112.13;;;19.12;78.77
36234;BME280;43467;50.890;5.982;2022-08-19T04:45:51;100111.16;;;19.13;79.11
36234;BME280;43467;50.890;5.982;2022-08-19T04:48:17;100118.81;;;19.17;79.11
36234;BME280;43467;50.890;5.982;2022-08-19T04:50:55;100114.78;;;19.12;79.18
36234;BME280;43467;50.890;5.982;2022-08-19T04:53:33;100119.47;;;19.10;79.75
36234;BME280;43467;50.890;5.982;2022-08-19T04:55:59;100118.00;;;19.06;79.64
36234;BME280;43467;50.890;5.982;2022-08-19T04:58:29;100113.34;;;19.08;79.65
36234;BME280;43467;50.890;5.982;2022-08-19T05:00:54;100107.75;;;19.11;79.37
36234;BME280;43467;50.890;5.982;2022-08-19T05:03:20;100107.28;;;19.06;79.76
36234;BME280;43467;50.890;5.982;2022-08-19T05:05:47;100118.88;;;19.06;79.98
36234;BME280;43467;50.890;5.982;2022-08-19T05:08:17;100131.06;;;19.10;79.89
36234;BME280;43467;50.890;5.982;2022-08-19T05:10:46;100130.81;;;19.02;80.34
36234;BME280;43467;50.890;5.982;2022-08-19T05:13:12;100126.53;;;18.99;80.80
36234;BME280;43467;50.890;5.982;2022-08-19T05:15:37;100134.47;;;19.01;81.27
36234;BME280;43467;50.890;5.982;2022-08-19T05:18:03;100135.59;;;18.98;80.82
36234;BME280;43467;50.890;5.982;2022-08-19T05:20:48;100147.19;;;18.99;81.36
36234;BME280;43467;50.890;5.982;2022-08-19T05:23:32;100145.09;;;19.02;81.50
36234;BME280;43467;50.890;5.982;2022-08-19T05:25:57;100126.31;;;18.91;81.34
36234;BME280;43467;50.890;5.982;2022-08-19T05:28:22;100140.34;;;19.06;81.21
36234;BME280;43467;50.890;5.982;2022-08-19T05:30:48;100136.03;;;19.15;80.26
36234;BME280;43467;50.890;5.982;2022-08-19T05:33:15;100135.66;;;19.19;80.13
36234;BME280;43467;50.890;5.982;2022-08-19T05:35:41;100135.25;;;19.24;80.20
36234;BME280;43467;50.890;5.982;2022-08-19T05:38:07;100135.41;;;19.22;80.24
36234;BME280;43467;50.890;5.982;2022-08-19T05:40:37;100136.53;;;19.09;80.84
36234;BME280;43467;50.890;5.982;2022-08-19T05:43:05;100133.22;;;19.16;80.24
36234;BME280;43467;50.890;5.982;2022-08-19T05:45:31;100132.25;;;19.17;80.35
36234;BME280;43467;50.890;5.982;2022-08-19T05:47:56;100132.97;;;19.19;79.98
36234;BME280;43467;50.890;5.982;2022-08-19T05:50:23;100128.81;;;19.26;79.25
36234;BME280;43467;50.890;5.982;2022-08-19T05:52:49;100139.78;;;19.23;79.47
36234;BME280;43467;50.890;5.982;2022-08-19T05:55:14;100139.88;;;19.33;79.22
36234;BME280;43467;50.890;5.982;2022-08-19T05:57:39;100142.81;;;19.30;78.14
36234;BME280;43467;50.890;5.982;2022-08-19T06:00:06;100133.03;;;19.29;77.95
36234;BME280;43467;50.890;5.982;2022-08-19T06:02:35;100138.38;;;19.40;77.40
36234;BME280;43467;50.890;5.982;2022-08-19T06:05:01;100138.16;;;19.32;77.06
36234;BME280;43467;50.890;5.982;2022-08-19T06:07:27;100140.72;;;19.33;77.58
36234;BME280;43467;50.890;5.982;2022-08-19T06:09:54;100137.06;;;19.34;76.94
36234;BME280;43467;50.890;5.982;2022-08-19T06:12:19;100137.19;;;19.44;76.52
36234;BME280;43467;50.890;5.982;2022-08-19T06:14:44;100127.63;;;19.51;75.99
36234;BME280;43467;50.890;5.982;2022-08-19T06:17:10;100137.59;;;19.60;75.73
36234;BME280;43467;50.890;5.982;2022-08-19T06:19:36;100146.09;;;19.65;75.44
36234;BME280;43467;50.890;5.982;2022-08-19T06:22:04;100143.50;;;19.75;74.95
36234;BME280;43467;50.890;5.982;2022-08-19T06:24:30;100154.63;;;19.70;74.91
36234;BME280;43467;50.890;5.982;2022-08-19T06:26:58;100145.91;;;19.78;74.77
36234;BME280;43467;50.890;5.982;2022-08-19T06:29:25;100148.41;;;19.70;75.48
36234;BME280;43467;50.890;5.982;2022-08-19T06:31:54;100151.03;;;19.81;75.24
36234;BME280;43467;50.890;5.982;2022-08-19T06:34:22;100151.44;;;19.76;75.15
36234;BME280;43467;50.890;5.982;2022-08-19T06:36:50;100161.91;;;19.79;75.07
36234;BME280;43467;50.890;5.982;2022-08-19T06:39:22;100159.09;;;19.60;76.12
36234;BME280;43467;50.890;5.982;2022-08-19T06:41:51;100163.84;;;19.57;76.39
36234;BME280;43467;50.890;5.982;2022-08-19T06:44:19;100163.75;;;19.79;75.62
36234;BME280;43467;50.890;5.982;2022-08-19T06:46:45;100170.25;;;19.76;75.31
36234;BME280;43467;50.890;5.982;2022-08-19T06:49:11;100168.34;;;19.88;75.22
36234;BME280;43467;50.890;5.982;2022-08-19T06:51:43;100179.41;;;19.94;75.10
36234;BME280;43467;50.890;5.982;2022-08-19T06:54:09;100169.84;;;20.02;74.45
36234;BME280;43467;50.890;5.982;2022-08-19T06:56:35;100173.38;;;20.02;75.03
36234;BME280;43467;50.890;5.982;2022-08-19T06:59:06;100172.13;;;20.06;75.18
36234;BME280;43467;50.890;5.982;2022-08-19T07:01:41;100175.28;;;20.11;75.68
36234;BME280;43467;50.890;5.982;2022-08-19T07:04:08;100174.59;;;20.09;75.29
36234;BME280;43467;50.890;5.982;2022-08-19T07:06:35;100175.88;;;20.15;75.80
36234;BME280;43467;50.890;5.982;2022-08-19T07:09:01;100174.22;;;20.23;74.94
36234;BME280;43467;50.890;5.982;2022-08-19T07:11:27;100183.41;;;20.21;74.33
36234;BME280;43467;50.890;5.982;2022-08-19T07:13:53;100186.34;;;19.97;75.06
36234;BME280;43467;50.890;5.982;2022-08-19T07:16:19;100195.53;;;19.94;75.53
36234;BME280;43467;50.890;5.982;2022-08-19T07:18:47;100195.06;;;19.89;75.74
36234;BME280;43467;50.890;5.982;2022-08-19T07:21:16;100191.81;;;20.07;75.05
36234;BME280;43467;50.890;5.982;2022-08-19T07:23:43;100198.16;;;20.06;74.99
36234;BME280;43467;50.890;5.982;2022-08-19T07:26:23;100193.91;;;20.24;74.26
36234;BME280;43467;50.890;5.982;2022-08-19T07:28:50;100198.97;;;20.38;73.71
36234;BME280;43467;50.890;5.982;2022-08-19T07:31:18;100199.81;;;20.38;73.07
36234;BME280;43467;50.890;5.982;2022-08-19T07:33:46;100188.66;;;20.22;72.91
36234;BME280;43467;50.890;5.982;2022-08-19T07:36:15;100197.97;;;20.18;73.20
36234;BME280;43467;50.890;5.982;2022-08-19T07:38:43;100199.00;;;20.27;72.39
36234;BME280;43467;50.890;5.982;2022-08-19T07:41:13;100204.47;;;20.16;72.45
36234;BME280;43467;50.890;5.982;2022-08-19T07:43:39;100207.84;;;20.18;72.34
36234;BME280;43467;50.890;5.982;2022-08-19T07:46:05;100208.31;;;20.23;72.23
36234;BME280;43467;50.890;5.982;2022-08-19T07:48:31;100213.00;;;20.21;72.16
36234;BME280;43467;50.890;5.982;2022-08-19T07:51:01;100210.97;;;20.34;71.88
36234;BME280;43467;50.890;5.982;2022-08-19T07:53:29;100218.91;;;20.35;71.02
36234;BME280;43467;50.890;5.982;2022-08-19T07:55:55;100213.81;;;20.32;71.28
36234;BME280;43467;50.890;5.982;2022-08-19T07:58:21;100224.69;;;20.31;71.15
36234;BME280;43467;50.890;5.982;2022-08-19T08:00:49;100218.63;;;20.38;71.20
36234;BME280;43467;50.890;5.982;2022-08-19T08:03:17;100227.84;;;20.36;70.77
36234;BME280;43467;50.890;5.982;2022-08-19T08:05:43;100230.84;;;20.42;71.04
36234;BME280;43467;50.890;5.982;2022-08-19T08:08:27;100238.91;;;20.42;70.94
36234;BME280;43467;50.890;5.982;2022-08-19T08:11:12;100230.34;;;20.58;69.86
36234;BME280;43467;50.890;5.982;2022-08-19T08:13:38;100231.38;;;20.67;69.97
36234;BME280;43467;50.890;5.982;2022-08-19T08:16:03;100227.13;;;20.64;70.20
36234;BME280;43467;50.890;5.982;2022-08-19T08:18:29;100226.69;;;20.59;69.59
36234;BME280;43467;50.890;5.982;2022-08-19T08:20:55;100230.41;;;20.68;69.60
36234;BME280;43467;50.890;5.982;2022-08-19T08:23:22;100232.69;;;20.72;69.16
36234;BME280;43467;50.890;5.982;2022-08-19T08:25:48;100230.28;;;20.69;68.73
36234;BME280;43467;50.890;5.982;2022-08-19T08:28:15;100222.66;;;20.74;69.06
36234;BME280;43467;50.890;5.982;2022-08-19T08:30:41;100234.88;;;20.88;68.37
36234;BME280;43467;50.890;5.982;2022-08-19T08:33:07;100234.38;;;20.94;67.66
36234;BME280;43467;50.890;5.982;2022-08-19T08:35:33;100237.81;;;20.75;68.83
36234;BME280;43467;50.890;5.982;2022-08-19T08:37:59;100232.03;;;20.80;68.26
36234;BME280;43467;50.890;5.982;2022-08-19T08:43:31;100245.16;;;21.04;66.90
36234;BME280;43467;50.890;5.982;2022-08-19T08:46:20;100236.72;;;21.18;66.53
36234;BME280;43467;50.890;5.982;2022-08-19T08:48:57;100238.44;;;21.28;65.57
36234;BME280;43467;50.890;5.982;2022-08-19T08:51:37;100228.56;;;21.39;65.45
36234;BME280;43467;50.890;5.982;2022-08-19T08:54:10;100228.59;;;21.67;64.75
36234;BME280;43467;50.890;5.982;2022-08-19T08:56:38;100232.28;;;21.66;63.96
36234;BME280;43467;50.890;5.982;2022-08-19T08:59:19;100215.81;;;21.69;63.45
36234;BME280;43467;50.890;5.982;2022-08-19T09:01:45;100223.63;;;21.82;63.69
36234;BME280;43467;50.890;5.982;2022-08-19T09:04:12;100227.34;;;21.91;62.75
36234;BME280;43467;50.890;5.982;2022-08-19T09:09:56;100224.06;;;21.87;62.41
36234;BME280;43467;50.890;5.982;2022-08-19T09:13:19;100217.56;;;21.80;62.66
36234;BME280;43467;50.890;5.982;2022-08-19T09:15:14;100224.38;;;21.84;62.77
36234;BME280;43467;50.890;5.982;2022-08-19T09:17:41;100228.75;;;21.85;62.69
36234;BME280;43467;50.890;5.982;2022-08-19T09:22:36;100218.69;;;21.87;63.19
36234;BME280;43467;50.890;5.982;2022-08-19T09:25:03;100222.53;;;21.94;63.38
36234;BME280;43467;50.890;5.982;2022-08-19T09:27:31;100228.91;;;21.93;63.04
36234;BME280;43467;50.890;5.982;2022-08-19T09:29:57;100217.25;;;21.83;63.71
36234;BME280;43467;50.890;5.982;2022-08-19T09:32:24;100224.25;;;21.95;63.45
36234;BME280;43467;50.890;5.982;2022-08-19T09:34:51;100234.75;;;22.08;63.06
36234;BME280;43467;50.890;5.982;2022-08-19T09:37:20;100224.09;;;22.16;62.51
36234;BME280;43467;50.890;5.982;2022-08-19T09:39:45;100225.50;;;22.20;62.26
36234;BME280;43467;50.890;5.982;2022-08-19T09:42:11;100232.00;;;22.27;62.47
36234;BME280;43467;50.890;5.982;2022-08-19T09:44:42;100227.16;;;22.31;62.03
36234;BME280;43467;50.890;5.982;2022-08-19T09:47:09;100224.16;;;22.34;61.60
36234;BME280;43467;50.890;5.982;2022-08-19T09:49:35;100226.72;;;22.45;60.88
36234;BME280;43467;50.890;5.982;2022-08-19T09:52:01;100228.28;;;22.47;60.60
36234;BME280;43467;50.890;5.982;2022-08-19T09:54:27;100219.75;;;22.52;60.38
36234;BME280;43467;50.890;5.982;2022-08-19T09:56:54;100231.09;;;22.55;60.66
36234;BME280;43467;50.890;5.982;2022-08-19T09:59:20;100228.88;;;22.41;60.93
36234;BME280;43467;50.890;5.982;2022-08-19T10:01:45;100224.16;;;22.34;61.16
36234;BME280;43467;50.890;5.982;2022-08-19T10:04:11;100227.34;;;22.29;61.31
36234;BME280;43467;50.890;5.982;2022-08-19T10:06:39;100222.38;;;22.15;61.84
36234;BME280;43467;50.890;5.982;2022-08-19T10:09:06;100229.00;;;22.30;61.99
36234;BME280;43467;50.890;5.982;2022-08-19T10:11:33;100225.88;;;22.35;62.11
36234;BME280;43467;50.890;5.982;2022-08-19T10:14:01;100218.91;;;22.42;61.18
36234;BME280;43467;50.890;5.982;2022-08-19T10:16:26;100219.13;;;22.21;61.92
36234;BME280;43467;50.890;5.982;2022-08-19T10:18:53;100213.13;;;22.37;61.68
36234;BME280;43467;50.890;5.982;2022-08-19T10:21:22;100218.22;;;22.40;61.49
36234;BME280;43467;50.890;5.982;2022-08-19T10:23:50;100215.31;;;22.60;61.53
36234;BME280;43467;50.890;5.982;2022-08-19T10:26:21;100215.75;;;22.56;61.02
36234;BME280;43467;50.890;5.982;2022-08-19T10:28:47;100217.16;;;22.60;60.77
36234;BME280;43467;50.890;5.982;2022-08-19T10:31:19;100209.38;;;22.57;60.55
36234;BME280;43467;50.890;5.982;2022-08-19T10:33:46;100209.81;;;22.52;59.94
36234;BME280;43467;50.890;5.982;2022-08-19T10:36:19;100207.00;;;22.44;59.43
36234;BME280;43467;50.890;5.982;2022-08-19T10:38:49;100206.94;;;22.54;59.85
36234;BME280;43467;50.890;5.982;2022-08-19T10:41:17;100206.13;;;22.44;60.32
36234;BME280;43467;50.890;5.982;2022-08-19T10:43:43;100200.19;;;22.40;59.62
36234;BME280;43467;50.890;5.982;2022-08-19T10:46:12;100216.50;;;22.48;59.69
36234;BME280;43467;50.890;5.982;2022-08-19T10:48:38;100206.25;;;22.52;59.52
36234;BME280;43467;50.890;5.982;2022-08-19T10:51:04;100208.06;;;22.70;59.45
36234;BME280;43467;50.890;5.982;2022-08-19T10:53:48;100204.91;;;22.75;58.70
36234;BME280;43467;50.890;5.982;2022-08-19T10:56:14;100204.88;;;22.85;58.77
36234;BME280;43467;50.890;5.982;2022-08-19T10:58:59;100208.53;;;22.93;58.45
36234;BME280;43467;50.890;5.982;2022-08-19T11:01:28;100207.94;;;22.99;57.85
36234;BME280;43467;50.890;5.982;2022-08-19T11:03:55;100205.72;;;23.12;57.70
36234;BME280;43467;50.890;5.982;2022-08-19T11:06:23;100204.38;;;23.26;57.51
36234;BME280;43467;50.890;5.982;2022-08-19T11:08:50;100197.19;;;23.17;56.92
36234;BME280;43467;50.890;5.982;2022-08-19T11:11:16;100191.88;;;23.25;56.95
36234;BME280;43467;50.890;5.982;2022-08-19T11:13:42;100188.38;;;23.15;57.06
36234;BME280;43467;50.890;5.982;2022-08-19T11:16:11;100201.97;;;23.23;56.81
36234;BME280;43467;50.890;5.982;2022-08-19T11:18:41;100188.22;;;23.16;56.90
36234;BME280;43467;50.890;5.982;2022-08-19T11:21:14;100189.16;;;23.25;56.04
36234;BME280;43467;50.890;5.982;2022-08-19T11:23:43;100173.63;;;23.27;56.12
36234;BME280;43467;50.890;5.982;2022-08-19T11:26:09;100184.75;;;23.24;56.76
36234;BME280;43467;50.890;5.982;2022-08-19T11:28:35;100181.75;;;23.27;57.09
36234;BME280;43467;50.890;5.982;2022-08-19T11:31:01;100182.22;;;23.23;56.71
36234;BME280;43467;50.890;5.982;2022-08-19T11:33:29;100182.59;;;23.28;56.52
36234;BME280;43467;50.890;5.982;2022-08-19T11:35:57;100179.13;;;23.17;56.57
36234;BME280;43467;50.890;5.982;2022-08-19T11:38:24;100193.25;;;23.29;56.78
36234;BME280;43467;50.890;5.982;2022-08-19T11:41:02;100192.66;;;23.35;56.90
36234;BME280;43467;50.890;5.982;2022-08-19T11:43:29;100186.16;;;23.28;56.89
36234;BME280;43467;50.890;5.982;2022-08-19T11:45:55;100189.06;;;23.44;57.05
36234;BME280;43467;50.890;5.982;2022-08-19T11:48:22;100183.44;;;23.55;56.35
36234;BME280;43467;50.890;5.982;2022-08-19T11:50:52;100179.09;;;23.45;55.80
36234;BME280;43467;50.890;5.982;2022-08-19T11:53:20;100180.03;;;23.53;55.80
36234;BME280;43467;50.890;5.982;2022-08-19T11:55:49;100183.13;;;23.58;55.23
36234;BME280;43467;50.890;5.982;2022-08-19T11:58:16;100188.53;;;23.58;52.00
36234;BME280;43467;50.890;5.982;2022-08-19T12:00:43;100177.09;;;23.65;52.75
36234;BME280;43467;50.890;5.982;2022-08-19T12:03:11;100177.41;;;23.61;51.61
36234;BME280;43467;50.890;5.982;2022-08-19T12:05:38;100169.31;;;23.61;51.23
36234;BME280;43467;50.890;5.982;2022-08-19T12:08:04;100170.38;;;23.69;51.72
36234;BME280;43467;50.890;5.982;2022-08-19T12:10:29;100165.16;;;23.67;52.03
36234;BME280;43467;50.890;5.982;2022-08-19T12:12:54;100171.94;;;23.71;51.73
36234;BME280;43467;50.890;5.982;2022-08-19T12:15:20;100168.91;;;23.74;51.97
36234;BME280;43467;50.890;5.982;2022-08-19T12:17:45;100164.91;;;23.78;51.05
36234;BME280;43467;50.890;5.982;2022-08-19T12:20:12;100175.38;;;23.81;50.98
36234;BME280;43467;50.890;5.982;2022-08-19T12:22:40;100165.09;;;23.85;50.04
36234;BME280;43467;50.890;5.982;2022-08-19T12:25:10;100166.03;;;23.93;50.04
36234;BME280;43467;50.890;5.982;2022-08-19T12:27:36;100160.06;;;24.07;50.77
36234;BME280;43467;50.890;5.982;2022-08-19T12:30:04;100165.47;;;24.07;50.44
36234;BME280;43467;50.890;5.982;2022-08-19T12:32:29;100155.69;;;24.32;50.76
36234;BME280;43467;50.890;5.982;2022-08-19T12:34:55;100154.41;;;24.44;50.19
36234;BME280;43467;50.890;5.982;2022-08-19T12:37:20;100147.38;;;24.60;50.01
36234;BME280;43467;50.890;5.982;2022-08-19T12:39:46;100150.72;;;24.53;49.99
36234;BME280;43467;50.890;5.982;2022-08-19T12:42:12;100154.28;;;24.54;49.57
36234;BME280;43467;50.890;5.982;2022-08-19T12:44:40;100146.16;;;24.54;49.61
36234;BME280;43467;50.890;5.982;2022-08-19T12:47:06;100151.31;;;24.65;49.60
36234;BME280;43467;50.890;5.982;2022-08-19T12:49:33;100135.63;;;24.77;50.10
36234;BME280;43467;50.890;5.982;2022-08-19T12:52:00;100141.28;;;24.91;49.30
36234;BME280;43467;50.890;5.982;2022-08-19T12:54:26;100137.41;;;24.94;49.19
36234;BME280;43467;50.890;5.982;2022-08-19T12:56:52;100132.38;;;25.15;49.07
36234;BME280;43467;50.890;5.982;2022-08-19T12:59:17;100141.06;;;25.27;48.96
36234;BME280;43467;50.890;5.982;2022-08-19T13:01:44;100151.38;;;25.31;48.42
36234;BME280;43467;50.890;5.982;2022-08-19T13:04:10;100137.31;;;25.20;48.77
36234;BME280;43467;50.890;5.982;2022-08-19T13:06:35;100144.56;;;25.11;48.57
36234;BME280;43467;50.890;5.982;2022-08-19T13:09:01;100126.66;;;25.18;48.49